sensor_id;sensor_type;location;lat;lon;timestamp;P1;durP1;ratioP1;P2;durP2;ratioP2
30605;SDS011;17371;51.328;3.860;2023-06-14T00:02:18;4.93;;;3.10;;
30605;SDS011;17371;51.328;3.860;2023-06-14T00:04:45;5.60;;;2.70;;
30605;SDS011;17371;51.328;3.860;2023-06-14T00:07:10;5.60;;;3.10;;
30605;SDS011;17371;51.328;3.860;2023-06-14T00:09:35;4.17;;;2.77;;
30605;SDS011;17371;51.328;3.860;2023-06-14T00:12:01;12.83;;;3.10;;
30605;SDS011;17371;51.328;3.860;2023-06-14T00:14:26;13.65;;;3.10;;
30605;SDS011;17371;51.328;3.860;2023-06-14T00:16:52;8.50;;;3.10;;
30605;SDS011;17371;51.328;3.860;2023-06-14T00:19:17;4.27;;;3.03;;
30605;SDS011;17371;51.328;3.860;2023-06-14T00:21:44;8.47;;;3.23;;
30605;SDS011;17371;51.328;3.860;2023-06-14T00:24:09;6.32;;;3.10;;
30605;SDS011;17371;51.328;3.860;2023-06-14T00:26:35;8.33;;;3.10;;
30605;SDS011;17371;51.328;3.860;2023-06-14T00:29:00;12.97;;;3.13;;
30605;SDS011;17371;51.328;3.860;2023-06-14T00:31:25;5.13;;;2.90;;
30605;SDS011;17371;51.328;3.860;2023-06-14T00:33:51;4.32;;;2.72;;
30605;SDS011;17371;51.328;3.860;2023-06-14T00:36:16;4.30;;;2.60;;
30605;SDS011;17371;51.328;3.860;2023-06-14T00:38:43;5.10;;;2.83;;
30605;SDS011;17371;51.328;3.860;2023-06-14T00:41:08;4.80;;;2.78;;
30605;SDS011;17371;51.328;3.860;2023-06-14T00:43:34;6.63;;;3.40;;
30605;SDS011;17371;51.328;3.860;2023-06-14T00:45:59;6.23;;;3.17;;
30605;SDS011;17371;51.328;3.860;2023-06-14T00:48:24;6.90;;;2.90;;
30605;SDS011;17371;51.328;3.860;2023-06-14T00:50:50;6.22;;;3.00;;
30605;SDS011;17371;51.328;3.860;2023-06-14T00:53:16;7.07;;;2.97;;
30605;SDS011;17371;51.328;3.860;2023-06-14T00:55:43;5.25;;;2.92;;
30605;SDS011;17371;51.328;3.860;2023-06-14T00:58:09;5.97;;;3.30;;
30605;SDS011;17371;51.328;3.860;2023-06-14T01:00:34;6.63;;;2.83;;
30605;SDS011;17371;51.328;3.860;2023-06-14T01:03:00;7.80;;;3.20;;
30605;SDS011;17371;51.328;3.860;2023-06-14T01:05:26;4.90;;;2.90;;
30605;SDS011;17371;51.328;3.860;2023-06-14T01:07:55;7.87;;;3.00;;
30605;SDS011;17371;51.328;3.860;2023-06-14T01:10:31;5.78;;;3.25;;
30605;SDS011;17371;51.328;3.860;2023-06-14T01:13:05;5.43;;;3.10;;
30605;SDS011;17371;51.328;3.860;2023-06-14T01:15:33;5.35;;;2.80;;
30605;SDS011;17371;51.328;3.860;2023-06-14T01:17:59;4.37;;;2.73;;
30605;SDS011;17371;51.328;3.860;2023-06-14T01:20:26;3.90;;;2.70;;
30605;SDS011;17371;51.328;3.860;2023-06-14T01:22:55;10.63;;;3.00;;
30605;SDS011;17371;51.328;3.860;2023-06-14T01:25:20;10.95;;;2.67;;
30605;SDS011;17371;51.328;3.860;2023-06-14T01:27:47;6.97;;;2.87;;
30605;SDS011;17371;51.328;3.860;2023-06-14T01:30:13;5.00;;;3.20;;
30605;SDS011;17371;51.328;3.860;2023-06-14T01:32:39;5.30;;;2.90;;
30605;SDS011;17371;51.328;3.860;2023-06-14T01:35:05;5.50;;;2.80;;
30605;SDS011;17371;51.328;3.860;2023-06-14T01:37:30;6.65;;;2.83;;
30605;SDS011;17371;51.328;3.860;2023-06-14T01:39:58;5.73;;;2.63;;
30605;SDS011;17371;51.328;3.860;2023-06-14T01:42:23;7.40;;;3.00;;
30605;SDS011;17371;51.328;3.860;2023-06-14T01:44:49;8.03;;;3.03;;
30605;SDS011;17371;51.328;3.860;2023-06-14T01:47:15;6.20;;;3.17;;
30605;SDS011;17371;51.328;3.860;2023-06-14T01:49:41;4.60;;;2.85;;
30605;SDS011;17371;51.328;3.860;2023-06-14T01:52:06;4.60;;;2.77;;
30605;SDS011;17371;51.328;3.860;2023-06-14T01:54:32;4.97;;;2.83;;
30605;SDS011;17371;51.328;3.860;2023-06-14T01:56:58;4.90;;;2.50;;
30605;SDS011;17371;51.328;3.860;2023-06-14T01:59:24;4.72;;;2.92;;
30605;SDS011;17371;51.328;3.860;2023-06-14T02:01:49;5.63;;;3.23;;
30605;SDS011;17371;51.328;3.860;2023-06-14T02:04:15;6.37;;;3.13;;
30605;SDS011;17371;51.328;3.860;2023-06-14T02:06:40;6.38;;;2.78;;
30605;SDS011;17371;51.328;3.860;2023-06-14T02:09:05;5.13;;;2.97;;
30605;SDS011;17371;51.328;3.860;2023-06-14T02:11:31;7.73;;;3.07;;
30605;SDS011;17371;51.328;3.860;2023-06-14T02:13:57;6.67;;;3.20;;
30605;SDS011;17371;51.328;3.860;2023-06-14T02:16:23;11.05;;;2.92;;
30605;SDS011;17371;51.328;3.860;2023-06-14T02:18:48;7.20;;;3.23;;
30605;SDS011;17371;51.328;3.860;2023-06-14T02:21:14;6.27;;;3.00;;
30605;SDS011;17371;51.328;3.860;2023-06-14T02:23:39;5.03;;;2.58;;
30605;SDS011;17371;51.328;3.860;2023-06-14T02:26:04;10.30;;;3.30;;
30605;SDS011;17371;51.328;3.860;2023-06-14T02:28:30;4.30;;;2.77;;
30605;SDS011;17371;51.328;3.860;2023-06-14T02:30:56;4.53;;;2.80;;
30605;SDS011;17371;51.328;3.860;2023-06-14T02:33:22;4.30;;;2.67;;
30605;SDS011;17371;51.328;3.860;2023-06-14T02:35:47;5.50;;;2.73;;
30605;SDS011;17371;51.328;3.860;2023-06-14T02:38:13;5.57;;;2.80;;
30605;SDS011;17371;51.328;3.860;2023-06-14T02:40:38;7.43;;;2.95;;
30605;SDS011;17371;51.328;3.860;2023-06-14T02:43:03;4.53;;;2.97;;
30605;SDS011;17371;51.328;3.860;2023-06-14T02:45:29;6.87;;;2.97;;
30605;SDS011;17371;51.328;3.860;2023-06-14T02:47:56;5.90;;;3.03;;
30605;SDS011;17371;51.328;3.860;2023-06-14T02:50:21;4.90;;;3.05;;
30605;SDS011;17371;51.328;3.860;2023-06-14T02:52:46;5.83;;;3.40;;
30605;SDS011;17371;51.328;3.860;2023-06-14T02:55:12;6.10;;;2.90;;
30605;SDS011;17371;51.328;3.860;2023-06-14T02:57:37;5.50;;;3.00;;
30605;SDS011;17371;51.328;3.860;2023-06-14T03:00:03;6.70;;;3.40;;
30605;SDS011;17371;51.328;3.860;2023-06-14T03:02:29;4.80;;;2.85;;
30605;SDS011;17371;51.328;3.860;2023-06-14T03:04:56;4.85;;;2.85;;
30605;SDS011;17371;51.328;3.860;2023-06-14T03:07:21;4.95;;;2.85;;
30605;SDS011;17371;51.328;3.860;2023-06-14T03:09:48;4.10;;;2.60;;
30605;SDS011;17371;51.328;3.860;2023-06-14T03:12:13;5.20;;;2.72;;
30605;SDS011;17371;51.328;3.860;2023-06-14T03:14:39;5.00;;;2.83;;
30605;SDS011;17371;51.328;3.860;2023-06-14T03:17:04;5.30;;;2.63;;
30605;SDS011;17371;51.328;3.860;2023-06-14T03:19:30;4.57;;;2.70;;
30605;SDS011;17371;51.328;3.860;2023-06-14T03:21:57;4.85;;;2.65;;
30605;SDS011;17371;51.328;3.860;2023-06-14T03:24:22;6.75;;;2.90;;
30605;SDS011;17371;51.328;3.860;2023-06-14T03:26:48;4.50;;;2.67;;
30605;SDS011;17371;51.328;3.860;2023-06-14T03:29:13;4.30;;;2.80;;
30605;SDS011;17371;51.328;3.860;2023-06-14T03:31:41;5.68;;;2.85;;
30605;SDS011;17371;51.328;3.860;2023-06-14T03:34:21;5.85;;;2.53;;
30605;SDS011;17371;51.328;3.860;2023-06-14T03:36:47;4.60;;;2.70;;
30605;SDS011;17371;51.328;3.860;2023-06-14T03:39:13;6.10;;;3.33;;
30605;SDS011;17371;51.328;3.860;2023-06-14T03:41:39;4.57;;;2.80;;
30605;SDS011;17371;51.328;3.860;2023-06-14T03:44:04;6.65;;;2.72;;
30605;SDS011;17371;51.328;3.860;2023-06-14T03:46:29;6.07;;;3.03;;
30605;SDS011;17371;51.328;3.860;2023-06-14T03:48:55;5.03;;;2.70;;
30605;SDS011;17371;51.328;3.860;2023-06-14T03:51:20;5.17;;;2.80;;
30605;SDS011;17371;51.328;3.860;2023-06-14T03:53:46;5.30;;;2.63;;
30605;SDS011;17371;51.328;3.860;2023-06-14T03:56:12;5.57;;;2.93;;
30605;SDS011;17371;51.328;3.860;2023-06-14T03:58:38;5.30;;;2.70;;
30605;SDS011;17371;51.328;3.860;2023-06-14T04:01:03;4.43;;;2.67;;
30605;SDS011;17371;51.328;3.860;2023-06-14T04:03:28;6.53;;;2.90;;
30605;SDS011;17371;51.328;3.860;2023-06-14T04:05:54;8.30;;;2.75;;
30605;SDS011;17371;51.328;3.860;2023-06-14T04:08:19;4.70;;;2.60;;
30605;SDS011;17371;51.328;3.860;2023-06-14T04:10:44;9.17;;;2.70;;
30605;SDS011;17371;51.328;3.860;2023-06-14T04:13:11;4.50;;;2.97;;
30605;SDS011;17371;51.328;3.860;2023-06-14T04:15:36;4.35;;;2.60;;
30605;SDS011;17371;51.328;3.860;2023-06-14T04:18:02;6.23;;;2.73;;
30605;SDS011;17371;51.328;3.860;2023-06-14T04:20:27;7.00;;;2.80;;
30605;SDS011;17371;51.328;3.860;2023-06-14T04:22:53;5.85;;;2.95;;
30605;SDS011;17371;51.328;3.860;2023-06-14T04:25:18;4.40;;;2.70;;
30605;SDS011;17371;51.328;3.860;2023-06-14T04:27:44;5.00;;;2.77;;
30605;SDS011;17371;51.328;3.860;2023-06-14T04:30:11;6.50;;;3.07;;
30605;SDS011;17371;51.328;3.860;2023-06-14T04:32:36;5.75;;;3.10;;
30605;SDS011;17371;51.328;3.860;2023-06-14T04:35:02;5.33;;;3.30;;
30605;SDS011;17371;51.328;3.860;2023-06-14T04:37:27;5.40;;;3.30;;
30605;SDS011;17371;51.328;3.860;2023-06-14T04:39:53;5.85;;;3.05;;
30605;SDS011;17371;51.328;3.860;2023-06-14T04:42:19;8.07;;;3.00;;
30605;SDS011;17371;51.328;3.860;2023-06-14T04:44:44;9.00;;;3.10;;
30605;SDS011;17371;51.328;3.860;2023-06-14T04:47:11;3.93;;;2.90;;
30605;SDS011;17371;51.328;3.860;2023-06-14T04:49:36;5.10;;;2.92;;
30605;SDS011;17371;51.328;3.860;2023-06-14T04:52:02;4.20;;;3.10;;
30605;SDS011;17371;51.328;3.860;2023-06-14T04:54:28;7.35;;;3.33;;
30605;SDS011;17371;51.328;3.860;2023-06-14T04:56:53;3.67;;;2.67;;
30605;SDS011;17371;51.328;3.860;2023-06-14T04:59:19;6.23;;;2.87;;
30605;SDS011;17371;51.328;3.860;2023-06-14T05:01:44;5.93;;;3.17;;
30605;SDS011;17371;51.328;3.860;2023-06-14T05:04:11;9.70;;;2.97;;
30605;SDS011;17371;51.328;3.860;2023-06-14T05:06:36;5.57;;;2.90;;
30605;SDS011;17371;51.328;3.860;2023-06-14T05:09:01;6.53;;;2.93;;
30605;SDS011;17371;51.328;3.860;2023-06-14T05:11:27;8.73;;;3.00;;
30605;SDS011;17371;51.328;3.860;2023-06-14T05:13:52;6.47;;;2.77;;
30605;SDS011;17371;51.328;3.860;2023-06-14T05:16:18;5.10;;;2.90;;
30605;SDS011;17371;51.328;3.860;2023-06-14T05:18:43;5.40;;;2.93;;
30605;SDS011;17371;51.328;3.860;2023-06-14T05:21:10;4.85;;;3.15;;
30605;SDS011;17371;51.328;3.860;2023-06-14T05:23:35;7.28;;;3.50;;
30605;SDS011;17371;51.328;3.860;2023-06-14T05:26:01;6.07;;;2.87;;
30605;SDS011;17371;51.328;3.860;2023-06-14T05:28:26;5.00;;;2.78;;
30605;SDS011;17371;51.328;3.860;2023-06-14T05:30:51;5.73;;;3.00;;
30605;SDS011;17371;51.328;3.860;2023-06-14T05:33:17;5.13;;;3.10;;
30605;SDS011;17371;51.328;3.860;2023-06-14T05:35:42;4.53;;;3.13;;
30605;SDS011;17371;51.328;3.860;2023-06-14T05:38:09;5.57;;;3.30;;
30605;SDS011;17371;51.328;3.860;2023-06-14T05:40:34;6.30;;;3.17;;
30605;SDS011;17371;51.328;3.860;2023-06-14T05:43:00;6.50;;;3.43;;
30605;SDS011;17371;51.328;3.860;2023-06-14T05:45:25;4.25;;;2.90;;
30605;SDS011;17371;51.328;3.860;2023-06-14T05:47:51;5.83;;;3.30;;
30605;SDS011;17371;51.328;3.860;2023-06-14T05:50:16;9.18;;;3.25;;
30605;SDS011;17371;51.328;3.860;2023-06-14T05:52:42;4.77;;;2.93;;
30605;SDS011;17371;51.328;3.860;2023-06-14T05:55:09;6.13;;;3.43;;
30605;SDS011;17371;51.328;3.860;2023-06-14T05:57:34;9.07;;;3.30;;
30605;SDS011;17371;51.328;3.860;2023-06-14T06:00:00;7.47;;;3.40;;
30605;SDS011;17371;51.328;3.860;2023-06-14T06:02:25;6.73;;;3.40;;
30605;SDS011;17371;51.328;3.860;2023-06-14T06:04:50;5.67;;;3.10;;
30605;SDS011;17371;51.328;3.860;2023-06-14T06:07:16;5.17;;;3.20;;
30605;SDS011;17371;51.328;3.860;2023-06-14T06:09:41;5.17;;;3.27;;
30605;SDS011;17371;51.328;3.860;2023-06-14T06:12:08;5.53;;;3.30;;
30605;SDS011;17371;51.328;3.860;2023-06-14T06:14:33;7.07;;;3.58;;
30605;SDS011;17371;51.328;3.860;2023-06-14T06:16:59;6.37;;;3.20;;
30605;SDS011;17371;51.328;3.860;2023-06-14T06:19:24;5.97;;;3.10;;
30605;SDS011;17371;51.328;3.860;2023-06-14T06:21:49;5.27;;;3.17;;
30605;SDS011;17371;51.328;3.860;2023-06-14T06:24:15;7.38;;;3.58;;
30605;SDS011;17371;51.328;3.860;2023-06-14T06:26:40;6.13;;;3.27;;
30605;SDS011;17371;51.328;3.860;2023-06-14T06:29:07;6.73;;;3.87;;
30605;SDS011;17371;51.328;3.860;2023-06-14T06:31:33;7.97;;;3.60;;
30605;SDS011;17371;51.328;3.860;2023-06-14T06:33:58;7.57;;;3.70;;
30605;SDS011;17371;51.328;3.860;2023-06-14T06:36:23;6.70;;;3.43;;
30605;SDS011;17371;51.328;3.860;2023-06-14T06:38:49;6.23;;;3.60;;
30605;SDS011;17371;51.328;3.860;2023-06-14T06:41:15;5.82;;;3.65;;
30605;SDS011;17371;51.328;3.860;2023-06-14T06:43:40;6.30;;;3.50;;
30605;SDS011;17371;51.328;3.860;2023-06-14T06:46:07;9.00;;;3.30;;
30605;SDS011;17371;51.328;3.860;2023-06-14T06:48:32;6.20;;;3.58;;
30605;SDS011;17371;51.328;3.860;2023-06-14T06:50:57;5.57;;;3.13;;
30605;SDS011;17371;51.328;3.860;2023-06-14T06:53:23;6.47;;;3.63;;
30605;SDS011;17371;51.328;3.860;2023-06-14T06:55:48;6.20;;;3.33;;
30605;SDS011;17371;51.328;3.860;2023-06-14T06:58:14;5.27;;;3.30;;
30605;SDS011;17371;51.328;3.860;2023-06-14T07:00:39;6.90;;;3.87;;
30605;SDS011;17371;51.328;3.860;2023-06-14T07:03:06;5.37;;;3.53;;
30605;SDS011;17371;51.328;3.860;2023-06-14T07:05:31;6.95;;;3.40;;
30605;SDS011;17371;51.328;3.860;2023-06-14T07:07:57;5.33;;;3.60;;
30605;SDS011;17371;51.328;3.860;2023-06-14T07:10:22;10.23;;;3.53;;
30605;SDS011;17371;51.328;3.860;2023-06-14T07:12:47;8.07;;;3.28;;
30605;SDS011;17371;51.328;3.860;2023-06-14T07:15:13;6.93;;;3.53;;
30605;SDS011;17371;51.328;3.860;2023-06-14T07:17:38;6.60;;;3.50;;
30605;SDS011;17371;51.328;3.860;2023-06-14T07:20:06;5.57;;;3.40;;
30605;SDS011;17371;51.328;3.860;2023-06-14T07:22:32;5.18;;;3.28;;
30605;SDS011;17371;51.328;3.860;2023-06-14T07:24:57;7.67;;;3.63;;
30605;SDS011;17371;51.328;3.860;2023-06-14T07:27:23;6.00;;;3.67;;
30605;SDS011;17371;51.328;3.860;2023-06-14T07:29:48;5.70;;;3.25;;
30605;SDS011;17371;51.328;3.860;2023-06-14T07:32:13;5.50;;;3.57;;
30605;SDS011;17371;51.328;3.860;2023-06-14T07:34:39;5.93;;;3.40;;
30605;SDS011;17371;51.328;3.860;2023-06-14T07:37:05;7.60;;;3.80;;
30605;SDS011;17371;51.328;3.860;2023-06-14T07:39:31;6.47;;;3.70;;
30605;SDS011;17371;51.328;3.860;2023-06-14T07:41:56;7.47;;;3.70;;
30605;SDS011;17371;51.328;3.860;2023-06-14T07:44:22;5.77;;;3.70;;
30605;SDS011;17371;51.328;3.860;2023-06-14T07:46:47;7.97;;;3.70;;
30605;SDS011;17371;51.328;3.860;2023-06-14T07:49:12;8.53;;;3.93;;
30605;SDS011;17371;51.328;3.860;2023-06-14T07:51:38;7.40;;;3.80;;
30605;SDS011;17371;51.328;3.860;2023-06-14T07:54:05;6.07;;;3.75;;
30605;SDS011;17371;51.328;3.860;2023-06-14T07:56:30;10.07;;;3.60;;
30605;SDS011;17371;51.328;3.860;2023-06-14T07:58:56;6.97;;;4.13;;
30605;SDS011;17371;51.328;3.860;2023-06-14T08:01:21;8.20;;;3.72;;
30605;SDS011;17371;51.328;3.860;2023-06-14T08:03:46;7.17;;;3.87;;
30605;SDS011;17371;51.328;3.860;2023-06-14T08:06:12;8.37;;;3.77;;
30605;SDS011;17371;51.328;3.860;2023-06-14T08:08:37;5.77;;;3.50;;
30605;SDS011;17371;51.328;3.860;2023-06-14T08:11:04;6.60;;;3.80;;
30605;SDS011;17371;51.328;3.860;2023-06-14T08:13:29;6.40;;;4.00;;
30605;SDS011;17371;51.328;3.860;2023-06-14T08:15:55;6.90;;;3.60;;
30605;SDS011;17371;51.328;3.860;2023-06-14T08:18:20;7.27;;;3.97;;
30605;SDS011;17371;51.328;3.860;2023-06-14T08:20:45;6.97;;;3.50;;
30605;SDS011;17371;51.328;3.860;2023-06-14T08:23:11;5.57;;;3.80;;
30605;SDS011;17371;51.328;3.860;2023-06-14T08:25:36;9.57;;;3.90;;
30605;SDS011;17371;51.328;3.860;2023-06-14T08:28:03;6.20;;;3.67;;
30605;SDS011;17371;51.328;3.860;2023-06-14T08:30:29;10.45;;;3.55;;
30605;SDS011;17371;51.328;3.860;2023-06-14T08:32:54;8.53;;;3.70;;
30605;SDS011;17371;51.328;3.860;2023-06-14T08:35:19;6.83;;;3.30;;
30605;SDS011;17371;51.328;3.860;2023-06-14T08:37:45;10.20;;;3.72;;
30605;SDS011;17371;51.328;3.860;2023-06-14T08:40:13;5.83;;;3.57;;
30605;SDS011;17371;51.328;3.860;2023-06-14T08:42:43;7.03;;;3.95;;
30605;SDS011;17371;51.328;3.860;2023-06-14T08:45:10;8.00;;;3.40;;
30605;SDS011;17371;51.328;3.860;2023-06-14T08:47:36;8.93;;;3.92;;
30605;SDS011;17371;51.328;3.860;2023-06-14T08:50:01;9.50;;;4.03;;
30605;SDS011;17371;51.328;3.860;2023-06-14T08:52:28;10.68;;;3.88;;
30605;SDS011;17371;51.328;3.860;2023-06-14T08:54:54;7.00;;;3.40;;
30605;SDS011;17371;51.328;3.860;2023-06-14T08:57:20;7.80;;;3.83;;
30605;SDS011;17371;51.328;3.860;2023-06-14T08:59:46;6.45;;;3.60;;
30605;SDS011;17371;51.328;3.860;2023-06-14T09:02:13;7.70;;;3.90;;
30605;SDS011;17371;51.328;3.860;2023-06-14T09:04:39;7.43;;;3.58;;
30605;SDS011;17371;51.328;3.860;2023-06-14T09:07:05;7.13;;;3.80;;
30605;SDS011;17371;51.328;3.860;2023-06-14T09:09:30;5.95;;;3.90;;
30605;SDS011;17371;51.328;3.860;2023-06-14T09:11:56;8.60;;;4.10;;
30605;SDS011;17371;51.328;3.860;2023-06-14T09:14:23;8.40;;;4.00;;
30605;SDS011;17371;51.328;3.860;2023-06-14T09:16:51;7.63;;;3.63;;
30605;SDS011;17371;51.328;3.860;2023-06-14T09:19:22;7.28;;;4.22;;
30605;SDS011;17371;51.328;3.860;2023-06-14T09:21:48;5.27;;;3.50;;
30605;SDS011;17371;51.328;3.860;2023-06-14T09:24:13;11.32;;;3.83;;
30605;SDS011;17371;51.328;3.860;2023-06-14T09:26:39;8.07;;;3.53;;
30605;SDS011;17371;51.328;3.860;2023-06-14T09:29:05;6.83;;;3.80;;
30605;SDS011;17371;51.328;3.860;2023-06-14T09:31:30;9.63;;;3.72;;
30605;SDS011;17371;51.328;3.860;2023-06-14T09:33:55;5.30;;;3.60;;
30605;SDS011;17371;51.328;3.860;2023-06-14T09:36:22;7.27;;;4.10;;
30605;SDS011;17371;51.328;3.860;2023-06-14T09:38:52;8.65;;;3.90;;
30605;SDS011;17371;51.328;3.860;2023-06-14T09:41:17;7.05;;;4.25;;
30605;SDS011;17371;51.328;3.860;2023-06-14T09:43:43;10.53;;;3.83;;
30605;SDS011;17371;51.328;3.860;2023-06-14T09:46:08;7.90;;;4.27;;
30605;SDS011;17371;51.328;3.860;2023-06-14T09:48:34;7.18;;;3.72;;
30605;SDS011;17371;51.328;3.860;2023-06-14T09:51:00;8.50;;;4.43;;
30605;SDS011;17371;51.328;3.860;2023-06-14T09:53:29;6.20;;;3.92;;
30605;SDS011;17371;51.328;3.860;2023-06-14T09:55:55;7.07;;;4.00;;
30605;SDS011;17371;51.328;3.860;2023-06-14T09:58:23;7.80;;;4.10;;
30605;SDS011;17371;51.328;3.860;2023-06-14T10:00:50;7.30;;;4.35;;
30605;SDS011;17371;51.328;3.860;2023-06-14T10:03:16;6.97;;;4.10;;
30605;SDS011;17371;51.328;3.860;2023-06-14T10:05:45;7.43;;;3.90;;
30605;SDS011;17371;51.328;3.860;2023-06-14T10:08:13;8.55;;;3.95;;
30605;SDS011;17371;51.328;3.860;2023-06-14T10:10:41;8.40;;;4.03;;
30605;SDS011;17371;51.328;3.860;2023-06-14T10:13:07;7.72;;;3.95;;
30605;SDS011;17371;51.328;3.860;2023-06-14T10:15:35;6.70;;;3.80;;
30605;SDS011;17371;51.328;3.860;2023-06-14T10:18:07;8.55;;;3.80;;
30605;SDS011;17371;51.328;3.860;2023-06-14T10:20:37;6.07;;;3.80;;
30605;SDS011;17371;51.328;3.860;2023-06-14T10:23:07;10.60;;;4.20;;
30605;SDS011;17371;51.328;3.860;2023-06-14T10:25:35;18.75;;;3.65;;
30605;SDS011;17371;51.328;3.860;2023-06-14T10:28:15;9.65;;;3.70;;
30605;SDS011;17371;51.328;3.860;2023-06-14T10:30:45;6.55;;;3.70;;
30605;SDS011;17371;51.328;3.860;2023-06-14T10:33:26;8.98;;;3.40;;
30605;SDS011;17371;51.328;3.860;2023-06-14T10:36:06;5.93;;;3.70;;
30605;SDS011;17371;51.328;3.860;2023-06-14T10:38:32;7.63;;;3.97;;
30605;SDS011;17371;51.328;3.860;2023-06-14T10:40:57;13.53;;;3.57;;
30605;SDS011;17371;51.328;3.860;2023-06-14T10:43:24;6.18;;;3.97;;
30605;SDS011;17371;51.328;3.860;2023-06-14T10:48:40;4.78;;;3.00;;
30605;SDS011;17371;51.328;3.860;2023-06-14T10:51:06;6.30;;;3.35;;
30605;SDS011;17371;51.328;3.860;2023-06-14T10:53:36;5.70;;;3.50;;
30605;SDS011;17371;51.328;3.860;2023-06-14T10:56:06;4.97;;;3.20;;
30605;SDS011;17371;51.328;3.860;2023-06-14T10:58:32;6.28;;;3.40;;
30605;SDS011;17371;51.328;3.860;2023-06-14T11:00:58;7.95;;;3.33;;
30605;SDS011;17371;51.328;3.860;2023-06-14T11:06:21;7.93;;;3.75;;
30605;SDS011;17371;51.328;3.860;2023-06-14T11:08:56;5.38;;;3.47;;
30605;SDS011;17371;51.328;3.860;2023-06-14T11:11:38;5.50;;;3.17;;
30605;SDS011;17371;51.328;3.860;2023-06-14T11:14:08;5.03;;;3.30;;
30605;SDS011;17371;51.328;3.860;2023-06-14T11:16:35;6.13;;;3.42;;
30605;SDS011;17371;51.328;3.860;2023-06-14T11:19:00;5.03;;;3.37;;
30605;SDS011;17371;51.328;3.860;2023-06-14T11:21:26;4.82;;;3.17;;
30605;SDS011;17371;51.328;3.860;2023-06-14T11:23:51;6.57;;;3.23;;
30605;SDS011;17371;51.328;3.860;2023-06-14T11:26:24;5.88;;;3.17;;
30605;SDS011;17371;51.328;3.860;2023-06-14T11:28:49;5.57;;;3.20;;
30605;SDS011;17371;51.328;3.860;2023-06-14T11:31:21;5.10;;;3.33;;
30605;SDS011;17371;51.328;3.860;2023-06-14T11:33:49;5.45;;;3.10;;
30605;SDS011;17371;51.328;3.860;2023-06-14T11:36:15;6.55;;;3.17;;
30605;SDS011;17371;51.328;3.860;2023-06-14T11:38:40;5.13;;;3.30;;
30605;SDS011;17371;51.328;3.860;2023-06-14T11:41:05;6.10;;;3.35;;
30605;SDS011;17371;51.328;3.860;2023-06-14T11:43:31;7.90;;;3.40;;
30605;SDS011;17371;51.328;3.860;2023-06-14T11:45:56;8.47;;;2.90;;
30605;SDS011;17371;51.328;3.860;2023-06-14T11:48:23;4.40;;;2.90;;
30605;SDS011;17371;51.328;3.860;2023-06-14T11:50:49;3.95;;;2.88;;
30605;SDS011;17371;51.328;3.860;2023-06-14T11:53:14;4.40;;;2.90;;
30605;SDS011;17371;51.328;3.860;2023-06-14T11:55:40;5.80;;;3.28;;
30605;SDS011;17371;51.328;3.860;2023-06-14T11:58:06;4.90;;;2.93;;
30605;SDS011;17371;51.328;3.860;2023-06-14T12:00:31;5.37;;;2.90;;
30605;SDS011;17371;51.328;3.860;2023-06-14T12:02:57;6.17;;;3.20;;
30605;SDS011;17371;51.328;3.860;2023-06-14T12:05:24;4.30;;;2.83;;
30605;SDS011;17371;51.328;3.860;2023-06-14T12:07:50;6.00;;;2.90;;
30605;SDS011;17371;51.328;3.860;2023-06-14T12:10:16;6.00;;;3.23;;
30605;SDS011;17371;51.328;3.860;2023-06-14T12:12:41;4.25;;;2.92;;
30605;SDS011;17371;51.328;3.860;2023-06-14T12:15:08;4.37;;;2.80;;
30605;SDS011;17371;51.328;3.860;2023-06-14T12:17:34;4.38;;;3.00;;
30605;SDS011;17371;51.328;3.860;2023-06-14T12:20:04;7.22;;;2.80;;
30605;SDS011;17371;51.328;3.860;2023-06-14T12:24:58;5.50;;;2.85;;
30605;SDS011;17371;51.328;3.860;2023-06-14T12:27:25;4.20;;;2.90;;
30605;SDS011;17371;51.328;3.860;2023-06-14T12:29:58;3.50;;;2.35;;
30605;SDS011;17371;51.328;3.860;2023-06-14T12:32:24;3.40;;;2.47;;
30605;SDS011;17371;51.328;3.860;2023-06-14T12:34:49;5.78;;;2.95;;
30605;SDS011;17371;51.328;3.860;2023-06-14T12:37:14;4.33;;;2.53;;
30605;SDS011;17371;51.328;3.860;2023-06-14T12:39:41;4.33;;;2.80;;
30605;SDS011;17371;51.328;3.860;2023-06-14T12:42:07;6.47;;;2.60;;
30605;SDS011;17371;51.328;3.860;2023-06-14T12:44:32;4.87;;;2.93;;
30605;SDS011;17371;51.328;3.860;2023-06-14T12:46:58;4.47;;;2.80;;
30605;SDS011;17371;51.328;3.860;2023-06-14T12:49:23;4.77;;;2.60;;
30605;SDS011;17371;51.328;3.860;2023-06-14T12:51:48;4.80;;;2.50;;
30605;SDS011;17371;51.328;3.860;2023-06-14T12:54:14;5.93;;;3.03;;
30605;SDS011;17371;51.328;3.860;2023-06-14T12:56:40;3.83;;;2.60;;
30605;SDS011;17371;51.328;3.860;2023-06-14T12:59:06;3.38;;;2.40;;
30605;SDS011;17371;51.328;3.860;2023-06-14T13:01:31;5.83;;;2.60;;
30605;SDS011;17371;51.328;3.860;2023-06-14T13:03:57;5.32;;;2.55;;
30605;SDS011;17371;51.328;3.860;2023-06-14T13:06:22;4.20;;;2.60;;
30605;SDS011;17371;51.328;3.860;2023-06-14T13:08:47;5.43;;;2.27;;
30605;SDS011;17371;51.328;3.860;2023-06-14T13:11:13;4.30;;;2.43;;
30605;SDS011;17371;51.328;3.860;2023-06-14T13:13:40;6.93;;;2.75;;
30605;SDS011;17371;51.328;3.860;2023-06-14T13:16:05;6.15;;;2.67;;
30605;SDS011;17371;51.328;3.860;2023-06-14T13:18:30;3.50;;;2.50;;
30605;SDS011;17371;51.328;3.860;2023-06-14T13:20:56;4.60;;;2.27;;
30605;SDS011;17371;51.328;3.860;2023-06-14T13:23:21;4.00;;;2.40;;
30605;SDS011;17371;51.328;3.860;2023-06-14T13:25:47;6.47;;;2.20;;
30605;SDS011;17371;51.328;3.860;2023-06-14T13:28:12;5.17;;;2.43;;
30605;SDS011;17371;51.328;3.860;2023-06-14T13:30:39;4.43;;;2.30;;
30605;SDS011;17371;51.328;3.860;2023-06-14T13:33:04;3.20;;;2.13;;
30605;SDS011;17371;51.328;3.860;2023-06-14T13:35:29;3.40;;;2.33;;
30605;SDS011;17371;51.328;3.860;2023-06-14T13:37:56;4.20;;;2.27;;
30605;SDS011;17371;51.328;3.860;2023-06-14T13:40:21;2.77;;;2.10;;
30605;SDS011;17371;51.328;3.860;2023-06-14T13:42:47;3.63;;;2.20;;
30605;SDS011;17371;51.328;3.860;2023-06-14T13:45:12;3.60;;;2.07;;
30605;SDS011;17371;51.328;3.860;2023-06-14T13:47:39;4.63;;;1.90;;
30605;SDS011;17371;51.328;3.860;2023-06-14T13:50:05;3.03;;;1.90;;
30605;SDS011;17371;51.328;3.860;2023-06-14T13:52:31;3.45;;;1.92;;
30605;SDS011;17371;51.328;3.860;2023-06-14T13:54:56;3.30;;;1.97;;
30605;SDS011;17371;51.328;3.860;2023-06-14T13:57:21;6.00;;;1.67;;
30605;SDS011;17371;51.328;3.860;2023-06-14T13:59:47;2.13;;;1.60;;
30605;SDS011;17371;51.328;3.860;2023-06-14T14:02:12;2.80;;;1.65;;
30605;SDS011;17371;51.328;3.860;2023-06-14T14:04:39;2.85;;;1.80;;
30605;SDS011;17371;51.328;3.860;2023-06-14T14:07:05;4.57;;;1.83;;
30605;SDS011;17371;51.328;3.860;2023-06-14T14:09:31;3.27;;;1.60;;
30605;SDS011;17371;51.328;3.860;2023-06-14T14:11:57;3.65;;;1.70;;
30605;SDS011;17371;51.328;3.860;2023-06-14T14:14:22;5.65;;;1.30;;
30605;SDS011;17371;51.328;3.860;2023-06-14T14:16:48;2.40;;;1.38;;
30605;SDS011;17371;51.328;3.860;2023-06-14T14:19:13;2.40;;;1.20;;
30605;SDS011;17371;51.328;3.860;2023-06-14T14:21:40;3.67;;;1.10;;
30605;SDS011;17371;51.328;3.860;2023-06-14T14:24:05;2.15;;;1.35;;
30605;SDS011;17371;51.328;3.860;2023-06-14T14:26:31;5.27;;;1.70;;
30605;SDS011;17371;51.328;3.860;2023-06-14T14:28:56;2.13;;;1.30;;
30605;SDS011;17371;51.328;3.860;2023-06-14T14:31:22;2.30;;;1.13;;
30605;SDS011;17371;51.328;3.860;2023-06-14T14:33:47;3.60;;;1.00;;
30605;SDS011;17371;51.328;3.860;2023-06-14T14:36:12;2.43;;;1.10;;
30605;SDS011;17371;51.328;3.860;2023-06-14T14:38:39;1.93;;;1.23;;
30605;SDS011;17371;51.328;3.860;2023-06-14T14:41:04;2.63;;;1.30;;
30605;SDS011;17371;51.328;3.860;2023-06-14T14:43:30;1.80;;;1.23;;
30605;SDS011;17371;51.328;3.860;2023-06-14T14:45:55;2.25;;;1.40;;
30605;SDS011;17371;51.328;3.860;2023-06-14T14:48:21;1.80;;;1.20;;
30605;SDS011;17371;51.328;3.860;2023-06-14T14:50:46;2.10;;;1.20;;